Harvard, Illinois
Current Conditions -  °F | °C
As of 7:35 PM on Friday 24 Oct 2014 (Local Time) from KBUU Reporting Station
Broken Clouds Broken Clouds  
Wind Chill: 50°   Ceiling: 6000
Heat Index: 50°   Visibility: 10mi
Dew Point: 49°   Wind: 0mph
Humidity: 95%   Direction: NA
Pressure: 29.93"   Gusts: NA
Location:  42.42°N, 88.62°W
Report Text: KBUU 250035Z AUTO 00000KT 10SM BKN060 BKN070 BKN095 10/09 A2993 RMK AO2 T01020094
Loading
Personal Weather Stations






























Interactive Weather Map
Tropical Storm Tracking
New forecast layout! Learn more

10-Day Weather Forecast

Advertisements
Track Severe Weather on mobile